Flight Track Log - Related Links

Times and Time Zones

All times are in EDT time to prevent confusion due to time zone crossing. See the SWA4138 flight status page for this flight to view local times or setup timezone preferences in your user account.

Time Position Orientation Groundspeed Altitude Reporting Facility
EDT Latitude Longitude Course Direction KTS MPH feet Rate Location/Type
Sat 08:15:32 PM 29.6258 -95.2597 194° South 168 193 1,200  Level Houston Center
Sat 08:16:34 PM 29.5728 -95.2750 194° South 250 288 2,600 2,390 Climbing Houston Center
Sat 08:17:35 PM 29.5233 -95.3397 229° Southwest 271 312 6,100 4,033 Climbing Houston Center
Sat 08:18:36 PM 29.4656 -95.4133 228° Southwest 260 299 10,800 3,934 Climbing Houston Center
Sat 08:19:37 PM 29.4164 -95.4761 228° Southwest 261 300 14,100 2,976 Climbing Houston Center
Sat 08:20:39 PM 29.3642 -95.5444 229° Southwest 283 326 16,900 2,732 Climbing Houston Center
Sat 08:21:40 PM 29.3067 -95.6144 227° Southwest 296 341 19,700 2,607 Climbing Houston Center
Sat 08:22:41 PM 29.2475 -95.6881 227° Southwest 311 358 22,200 2,311 Climbing Houston Center
Sat 08:23:42 PM 29.1861 -95.7642 227° Southwest 321 369 24,400 2,146 Climbing Houston Center
Sat 08:24:44 PM 29.1222 -95.8431 227° Southwest 332 382 26,600 1,756 Climbing Houston Center
Sat 08:25:45 PM 29.0569 -95.9242 227° Southwest 344 396 28,000 689 Climbing Houston Center
Sat 08:26:46 PM 28.9761 -96.0233 227° Southwest 370 426 28,000  Level Houston Center
Sat 08:27:47 PM 28.9056 -96.1083 227° Southwest 370 426 28,000  Level Houston Center
Sat 08:28:49 PM 28.8372 -96.1933 227° Southwest 368 423 28,000  Level Houston Center
Sat 08:29:50 PM 28.7656 -96.2817 227° Southwest 373 429 28,000  Level Houston Center
Sat 08:30:51 PM 28.6933 -96.3689 227° Southwest 375 432 28,000 -443 Level Houston Center
Sat 08:31:52 PM 28.6222 -96.4558 227° Southwest 375 432 27,100 -1,902 Descending Houston Center
Sat 08:32:54 PM 28.5528 -96.5400 227° Southwest 366 421 24,100 -2,780 Descending Houston Center
Sat 08:33:55 PM 28.4833 -96.6228 226° Southwest 363 418 21,400 -2,656 Descending Houston Center
Sat 08:34:56 PM 28.4164 -96.7064 228° Southwest 361 415 18,700 -3,073 Descending Houston Center
Sat 08:35:17 PM 28.3806 -96.7475 225° Southwest 352 405 17,200 -3,158 Descending Houston Center
Sat 08:35:53 PM 28.3453 -96.7908 227° Southwest 339 390 15,700 -1,882 Descending Houston Center
Sat 08:36:59 PM 28.2872 -96.8806 234° Southwest 322 371 14,000 -1,228 Descending Houston Center
Sat 08:38:00 PM 28.2428 -96.9722 241° Southwest 331 381 13,100 -984 Descending Houston Center
Sat 08:39:01 PM 28.1967 -97.0678 241° Southwest 332 382 12,000 -1,190 Descending Houston Center
Sat 08:40:01 PM 28.1561 -97.1506 241° Southwest 288 331 10,700 -1,140 Descending Houston Center
Sat 08:41:02 PM 28.1222 -97.2244 243° Southwest 262 302 9,700 -984 Descending Houston Center
Sat 08:42:03 PM 28.0842 -97.3008 241° Southwest 265 305 8,700 -992 Descending Houston Center
Sat 08:43:03 PM 28.0497 -97.3697 240° Southwest 266 306 7,700 -1,240 Descending Houston Center
Sat 08:44:04 PM 28.0119 -97.4483 241° Southwest 272 313 6,200 -1,574 Descending Houston Center
Sat 08:45:05 PM 27.9739 -97.5247 241° Southwest 269 310 4,500 -1,339 Descending Houston Center
Sat 08:46:05 PM 27.9300 -97.5853 231° Southwest 251 289 3,500 -843 Descending Houston Center
Sat 08:47:06 PM 27.8817 -97.6250 216° Southwest 207 238 2,800 -793 Descending Houston Center
Sat 08:48:06 PM 27.8442 -97.5900 140° Southeast 167 192 1,900 -843 Descending Houston Center
Sat 08:49:07 PM 27.8175 -97.5581 133° Southeast 116 133 1,100 -689 Descending Houston Center
Sat 08:50:08 PM 27.7917 -97.5308 137° Southeast 125 144 500 -372 Descending Houston Center
Sat 08:51:16 PM 27.7628 -97.5000 137° Southeast 127 146 300 -176 Descending Houston Center

Login

Don't have an account? Register now (free) for customized features, flight alerts, and more!